Serenade Of The Seas — C6FV8 — position and weather

sailwx.info

Track history (hours):
 
Tides and Currents Weather Stations Pressure Air Temp Water Temp Dewpoint Dewpoint Depression Visibility Wind Speed Wind Dir Waves Ship Positions

Serenade Of The Seas

Operator: Royal Caribbean Cruises Ltd

Last reported at 2020-Jan-24 11:00 UTC. Time now 2020-Jan-25 04:21 UTC.
Position N 09°18' W 079°48'.

Length 294 m; draft 8.5 m.

Type: Ship. MMSI: 311492000.

Wind from 030 at 10 knots

Barometer 1008.0 mb
Air temperature 26.4 ° C

Date/timePositionNaut miles runAvg speedWind from/ knotsBaromVisibWave heightAir tempDewpointWater temp
2020-Jan-24 11:00N 09°18' W 079°48'43413.1 030 / 101008.0 26.4
2020-Jan-23 02:00N 16°30' W 079°06'19611.5 350 / 251010.010.8
2020-Jan-22 09:01N 19°08' W 081°06'1223.6
2020-Jan-22 08:31N 19°11' W 081°19'28410.7
2020-Jan-21 06:00N 23°54' W 081°12'5025.1 250 / 211013.0 21.0
2020-Jan-21 04:00N 24°36' W 080°42'5316.4 360 / 251015.010.8 20.0
2020-Jan-21 00:45N 25°16' W 080°03'5013.2
2020-Jan-20 20:59N 26°05' W 080°07'0 0.0
2020-Jan-20 18:29N 26°05' W 080°07'0 0.0
2020-Jan-20 16:59N 26°05' W 080°07'0 0.0
2020-Jan-20 14:59N 26°05' W 080°07'0 0.0
2020-Jan-20 13:29N 26°05' W 080°07'0 0.0
2020-Jan-20 11:59N 26°05' W 080°07'5 4.8
2020-Jan-20 11:01N 26°06' W 080°02'2415.7
2020-Jan-20 09:30N 25°43' W 079°53'918.4
2020-Jan-20 09:00N 25°35' W 079°50'5618.5
2020-Jan-20 06:00N 24°42' W 079°30'47215.7 090 / 111013.0 24.0
2020-Jan-19 00:00N 20°06' W 072°36'26711.6 090 / 331014.0 24.7
2020-Jan-18 01:00N 19°06' W 068°00'11217.3 040 / 251015.010.8 28.0
2020-Jan-17 18:30N 18°29' W 066°08'2 1.7
2020-Jan-17 17:29N 18°28' W 066°07'0 0.0
2020-Jan-17 16:26N 18°28' W 066°07'0 0.0
2020-Jan-17 14:59N 18°28' W 066°07'0 0.0
2020-Jan-17 11:29N 18°28' W 066°07'6 2.1
2020-Jan-17 08:30N 18°34' W 066°04'21 8.5
2020-Jan-17 06:00N 18°30' W 065°42'4 3.9 090 / 111013.0 26.0
2020-Jan-17 05:00N 18°32' W 065°38'3 6.7
2020-Jan-17 04:30N 18°31' W 065°35'3 6.7
2020-Jan-17 04:00N 18°30' W 065°32'9 5.7
2020-Jan-17 02:26N 18°29' W 065°22'9 4.9
2020-Jan-17 00:30N 18°26' W 065°13'16 2.2
2020-Jan-16 17:26N 18°20' W 064°57'0 0.0
2020-Jan-16 16:56N 18°20' W 064°57'0 0.0
2020-Jan-16 13:32N 18°20' W 064°57'0 0.0
2020-Jan-16 12:50N 18°20' W 064°57'0 0.0
2020-Jan-16 12:20N 18°20' W 064°57'410.5
2020-Jan-16 12:00N 18°18' W 064°54'465.3 090 / 71014.0 25.0
2020-Jan-16 11:56N 18°20' W 064°57'3 2.9
2020-Jan-16 11:00N 18°18' W 064°59'6112.3
2020-Jan-16 06:00N 17°54' W 064°00'3110.5 090 / 201013.0 26.0
2020-Jan-16 02:59N 17°49' W 063°27'612.1
2020-Jan-16 02:30N 17°46' W 063°22'1412.0
2020-Jan-16 01:21N 17°38' W 063°10'925.1
2020-Jan-16 01:00N 17°30' W 063°06'29 2.2 090 / 261014.010.8
2020-Jan-15 12:00N 17°12' W 062°42'15 4.9 110 / 191013.0 25.4
2020-Jan-15 09:00N 17°20' W 062°55'3 6.2
2020-Jan-15 08:30N 17°22' W 062°58'11 4.6
2020-Jan-15 06:00N 17°30' W 063°06'1211.4 090 / 301011.0 25.0
2020-Jan-15 04:57N 17°41' W 063°10'10 6.7
2020-Jan-15 03:30N 17°46' W 063°19'7 7.2
2020-Jan-15 02:31N 17°48' W 063°26'5 5.1
2020-Jan-15 01:28N 17°51' W 063°31'715.0
2020-Jan-15 01:00N 17°48' W 063°24'21 5.9 080 / 251013.0 5.4 26.0 26.0
2020-Jan-14 21:30N 18°00' W 063°06'3 6.4
2020-Jan-14 20:58N 18°01' W 063°03'0 0.0
2020-Jan-14 19:13N 18°01' W 063°03'0 0.0
2020-Jan-14 18:19N 18°01' W 063°03'0 0.0
2020-Jan-14 17:58N 18°01' W 063°03'0 0.0
2020-Jan-14 17:19N 18°01' W 063°03'0 0.0
2020-Jan-14 16:49N 18°01' W 063°03'0 0.0
2020-Jan-14 14:55N 18°01' W 063°03'0 0.0
2020-Jan-14 14:28N 18°01' W 063°03'0 0.0
2020-Jan-14 13:28N 18°01' W 063°03'0 0.0
2020-Jan-14 11:46N 18°01' W 063°03'0 0.0
2020-Jan-14 11:16N 18°01' W 063°03'  
Track history (hours):
 
Tides and Currents Weather Stations Pressure Air Temp Water Temp Dewpoint Dewpoint Depression Visibility Wind Speed Wind Dir Waves Ship Positions

Serenade Of The Seas

Operator: Royal Caribbean Cruises Ltd

Last reported at 2020-Jan-24 11:00 UTC. Time now 2020-Jan-25 04:21 UTC.
Position N 09°18' W 079°48'.

Length 294 m; draft 8.5 m.

Type: Ship. MMSI: 311492000.

Wind from 030 at 10 knots

Barometer 1008.0 mb
Air temperature 26.4 ° C

Date/timePositionNaut miles runAvg speedWind from/ knotsBaromVisibWave heightAir tempDewpointWater temp
2020-Jan-24 11:00N 09°18' W 079°48'43413.1 030 / 101008.0 26.4
2020-Jan-23 02:00N 16°30' W 079°06'19611.5 350 / 251010.010.8
2020-Jan-22 09:01N 19°08' W 081°06'1223.6
2020-Jan-22 08:31N 19°11' W 081°19'28410.7
2020-Jan-21 06:00N 23°54' W 081°12'5025.1 250 / 211013.0 21.0
2020-Jan-21 04:00N 24°36' W 080°42'5316.4 360 / 251015.010.8 20.0
2020-Jan-21 00:45N 25°16' W 080°03'5013.2
2020-Jan-20 20:59N 26°05' W 080°07'0 0.0
2020-Jan-20 18:29N 26°05' W 080°07'0 0.0
2020-Jan-20 16:59N 26°05' W 080°07'0 0.0
2020-Jan-20 14:59N 26°05' W 080°07'0 0.0
2020-Jan-20 13:29N 26°05' W 080°07'0 0.0
2020-Jan-20 11:59N 26°05' W 080°07'5 4.8
2020-Jan-20 11:01N 26°06' W 080°02'2415.7
2020-Jan-20 09:30N 25°43' W 079°53'918.4
2020-Jan-20 09:00N 25°35' W 079°50'5618.5
2020-Jan-20 06:00N 24°42' W 079°30'47215.7 090 / 111013.0 24.0
2020-Jan-19 00:00N 20°06' W 072°36'26711.6 090 / 331014.0 24.7
2020-Jan-18 01:00N 19°06' W 068°00'11217.3 040 / 251015.010.8 28.0
2020-Jan-17 18:30N 18°29' W 066°08'2 1.7
2020-Jan-17 17:29N 18°28' W 066°07'0 0.0
2020-Jan-17 16:26N 18°28' W 066°07'0 0.0
2020-Jan-17 14:59N 18°28' W 066°07'0 0.0
2020-Jan-17 11:29N 18°28' W 066°07'6 2.1
2020-Jan-17 08:30N 18°34' W 066°04'21 8.5
2020-Jan-17 06:00N 18°30' W 065°42'4 3.9 090 / 111013.0 26.0
2020-Jan-17 05:00N 18°32' W 065°38'3 6.7
2020-Jan-17 04:30N 18°31' W 065°35'3 6.7
2020-Jan-17 04:00N 18°30' W 065°32'9 5.7
2020-Jan-17 02:26N 18°29' W 065°22'9 4.9
2020-Jan-17 00:30N 18°26' W 065°13'16 2.2
2020-Jan-16 17:26N 18°20' W 064°57'0 0.0
2020-Jan-16 16:56N 18°20' W 064°57'0 0.0
2020-Jan-16 13:32N 18°20' W 064°57'0 0.0
2020-Jan-16 12:50N 18°20' W 064°57'0 0.0
2020-Jan-16 12:20N 18°20' W 064°57'410.5
2020-Jan-16 12:00N 18°18' W 064°54'465.3 090 / 71014.0 25.0
2020-Jan-16 11:56N 18°20' W 064°57'3 2.9
2020-Jan-16 11:00N 18°18' W 064°59'6112.3
2020-Jan-16 06:00N 17°54' W 064°00'3110.5 090 / 201013.0 26.0
2020-Jan-16 02:59N 17°49' W 063°27'612.1
2020-Jan-16 02:30N 17°46' W 063°22'1412.0
2020-Jan-16 01:21N 17°38' W 063°10'925.1
2020-Jan-16 01:00N 17°30' W 063°06'29 2.2 090 / 261014.010.8
2020-Jan-15 12:00N 17°12' W 062°42'15 4.9 110 / 191013.0 25.4
2020-Jan-15 09:00N 17°20' W 062°55'3 6.2
2020-Jan-15 08:30N 17°22' W 062°58'11 4.6
2020-Jan-15 06:00N 17°30' W 063°06'1211.4 090 / 301011.0 25.0
2020-Jan-15 04:57N 17°41' W 063°10'10 6.7
2020-Jan-15 03:30N 17°46' W 063°19'7 7.2
2020-Jan-15 02:31N 17°48' W 063°26'5 5.1
2020-Jan-15 01:28N 17°51' W 063°31'715.0
2020-Jan-15 01:00N 17°48' W 063°24'21 5.9 080 / 251013.0 5.4 26.0 26.0
2020-Jan-14 21:30N 18°00' W 063°06'3 6.4
2020-Jan-14 20:58N 18°01' W 063°03'0 0.0
2020-Jan-14 19:13N 18°01' W 063°03'0 0.0
2020-Jan-14 18:19N 18°01' W 063°03'0 0.0
2020-Jan-14 17:58N 18°01' W 063°03'0 0.0
2020-Jan-14 17:19N 18°01' W 063°03'0 0.0
2020-Jan-14 16:49N 18°01' W 063°03'0 0.0
2020-Jan-14 14:55N 18°01' W 063°03'0 0.0
2020-Jan-14 14:28N 18°01' W 063°03'0 0.0
2020-Jan-14 13:28N 18°01' W 063°03'0 0.0
2020-Jan-14 11:46N 18°01' W 063°03'0 0.0
2020-Jan-14 11:16N 18°01' W 063°03'  

Dump ship's entire track history